sensor_id;sensor_type;location;lat;lon;timestamp;temperature;humidity
7720;DHT22;3902;49.474;8.616;2023-08-12T00:02:08;22.80;99.90
7720;DHT22;3902;49.474;8.616;2023-08-12T00:04:34;22.80;99.90
7720;DHT22;3902;49.474;8.616;2023-08-12T00:06:59;22.80;99.90
7720;DHT22;3902;49.474;8.616;2023-08-12T00:09:25;22.80;99.90
7720;DHT22;3902;49.474;8.616;2023-08-12T00:11:50;22.80;99.90
7720;DHT22;3902;49.474;8.616;2023-08-12T00:14:16;22.70;99.90
7720;DHT22;3902;49.474;8.616;2023-08-12T00:16:41;22.70;99.90
7720;DHT22;3902;49.474;8.616;2023-08-12T00:19:07;22.70;99.90
7720;DHT22;3902;49.474;8.616;2023-08-12T00:21:33;22.70;99.90
7720;DHT22;3902;49.474;8.616;2023-08-12T00:23:59;22.70;99.90
7720;DHT22;3902;49.474;8.616;2023-08-12T00:26:24;22.70;99.90
7720;DHT22;3902;49.474;8.616;2023-08-12T00:28:51;22.70;99.90
7720;DHT22;3902;49.474;8.616;2023-08-12T00:31:16;22.70;99.90
7720;DHT22;3902;49.474;8.616;2023-08-12T00:33:42;22.70;99.90
7720;DHT22;3902;49.474;8.616;2023-08-12T00:36:07;22.70;99.90
7720;DHT22;3902;49.474;8.616;2023-08-12T00:38:33;22.70;99.90
7720;DHT22;3902;49.474;8.616;2023-08-12T00:40:58;22.70;99.90
7720;DHT22;3902;49.474;8.616;2023-08-12T00:43:24;22.70;99.90
7720;DHT22;3902;49.474;8.616;2023-08-12T00:45:49;22.70;99.90
7720;DHT22;3902;49.474;8.616;2023-08-12T00:48:17;22.70;99.90
7720;DHT22;3902;49.474;8.616;2023-08-12T00:50:43;22.70;99.90
7720;DHT22;3902;49.474;8.616;2023-08-12T00:53:10;22.70;99.90
7720;DHT22;3902;49.474;8.616;2023-08-12T00:55:36;22.70;99.90
7720;DHT22;3902;49.474;8.616;2023-08-12T00:58:02;22.70;99.90
7720;DHT22;3902;49.474;8.616;2023-08-12T01:00:28;22.70;99.90
7720;DHT22;3902;49.474;8.616;2023-08-12T01:02:56;22.60;99.90
7720;DHT22;3902;49.474;8.616;2023-08-12T01:05:21;22.70;99.90
7720;DHT22;3902;49.474;8.616;2023-08-12T01:07:47;22.60;99.90
7720;DHT22;3902;49.474;8.616;2023-08-12T01:10:14;22.60;99.90
7720;DHT22;3902;49.474;8.616;2023-08-12T01:12:59;22.60;99.90
7720;DHT22;3902;49.474;8.616;2023-08-12T01:15:27;22.70;99.90
7720;DHT22;3902;49.474;8.616;2023-08-12T01:17:54;22.60;99.90
7720;DHT22;3902;49.474;8.616;2023-08-12T01:20:21;22.60;99.90
7720;DHT22;3902;49.474;8.616;2023-08-12T01:25:34;22.60;99.90
7720;DHT22;3902;49.474;8.616;2023-08-12T01:28:00;22.60;99.90
7720;DHT22;3902;49.474;8.616;2023-08-12T01:30:25;22.60;99.90
7720;DHT22;3902;49.474;8.616;2023-08-12T01:33:19;22.70;99.90
7720;DHT22;3902;49.474;8.616;2023-08-12T01:35:59;22.60;99.90
7720;DHT22;3902;49.474;8.616;2023-08-12T01:38:26;22.60;99.90
7720;DHT22;3902;49.474;8.616;2023-08-12T01:40:53;22.60;99.90
7720;DHT22;3902;49.474;8.616;2023-08-12T01:43:19;22.60;99.90
7720;DHT22;3902;49.474;8.616;2023-08-12T01:45:45;22.70;99.90
7720;DHT22;3902;49.474;8.616;2023-08-12T01:48:11;22.60;99.90
7720;DHT22;3902;49.474;8.616;2023-08-12T01:50:36;22.70;99.90
7720;DHT22;3902;49.474;8.616;2023-08-12T01:53:02;22.70;99.90
7720;DHT22;3902;49.474;8.616;2023-08-12T01:55:27;22.70;99.90
7720;DHT22;3902;49.474;8.616;2023-08-12T01:57:53;22.70;99.90
7720;DHT22;3902;49.474;8.616;2023-08-12T02:00:18;22.70;99.90
7720;DHT22;3902;49.474;8.616;2023-08-12T02:02:44;22.70;99.90
7720;DHT22;3902;49.474;8.616;2023-08-12T02:05:14;22.60;99.90
7720;DHT22;3902;49.474;8.616;2023-08-12T02:07:39;22.70;99.90
7720;DHT22;3902;49.474;8.616;2023-08-12T02:10:05;22.60;99.90
7720;DHT22;3902;49.474;8.616;2023-08-12T02:12:31;22.70;99.90
7720;DHT22;3902;49.474;8.616;2023-08-12T02:14:56;22.60;99.90
7720;DHT22;3902;49.474;8.616;2023-08-12T02:17:22;22.70;99.90
7720;DHT22;3902;49.474;8.616;2023-08-12T02:19:47;22.70;99.90
7720;DHT22;3902;49.474;8.616;2023-08-12T02:22:13;22.60;99.90
7720;DHT22;3902;49.474;8.616;2023-08-12T02:24:38;22.60;99.90
7720;DHT22;3902;49.474;8.616;2023-08-12T02:27:04;22.60;99.90
7720;DHT22;3902;49.474;8.616;2023-08-12T02:29:29;22.60;99.90
7720;DHT22;3902;49.474;8.616;2023-08-12T02:31:55;22.60;99.90
7720;DHT22;3902;49.474;8.616;2023-08-12T02:34:20;22.60;99.90
7720;DHT22;3902;49.474;8.616;2023-08-12T02:36:46;22.60;99.90
7720;DHT22;3902;49.474;8.616;2023-08-12T02:39:12;22.60;99.90
7720;DHT22;3902;49.474;8.616;2023-08-12T02:41:37;22.50;99.90
7720;DHT22;3902;49.474;8.616;2023-08-12T02:44:03;22.50;99.90
7720;DHT22;3902;49.474;8.616;2023-08-12T02:46:28;22.50;99.90
7720;DHT22;3902;49.474;8.616;2023-08-12T02:48:54;22.50;99.90
7720;DHT22;3902;49.474;8.616;2023-08-12T02:51:19;22.50;99.90
7720;DHT22;3902;49.474;8.616;2023-08-12T02:53:45;22.50;99.90
7720;DHT22;3902;49.474;8.616;2023-08-12T02:56:10;22.50;99.90
7720;DHT22;3902;49.474;8.616;2023-08-12T02:58:36;22.50;99.90
7720;DHT22;3902;49.474;8.616;2023-08-12T03:01:02;22.50;99.90
7720;DHT22;3902;49.474;8.616;2023-08-12T03:03:29;22.50;99.90
7720;DHT22;3902;49.474;8.616;2023-08-12T03:05:55;22.50;99.90
7720;DHT22;3902;49.474;8.616;2023-08-12T03:08:20;22.50;99.90
7720;DHT22;3902;49.474;8.616;2023-08-12T03:10:46;22.50;99.90
7720;DHT22;3902;49.474;8.616;2023-08-12T03:13:11;22.40;99.90
7720;DHT22;3902;49.474;8.616;2023-08-12T03:15:40;22.50;99.90
7720;DHT22;3902;49.474;8.616;2023-08-12T03:18:05;22.50;99.90
7720;DHT22;3902;49.474;8.616;2023-08-12T03:20:31;22.40;99.90
7720;DHT22;3902;49.474;8.616;2023-08-12T03:22:56;22.50;99.90
7720;DHT22;3902;49.474;8.616;2023-08-12T03:25:22;22.40;99.90
7720;DHT22;3902;49.474;8.616;2023-08-12T03:27:48;22.50;99.90
7720;DHT22;3902;49.474;8.616;2023-08-12T03:30:13;22.40;99.90
7720;DHT22;3902;49.474;8.616;2023-08-12T03:32:39;22.40;99.90
7720;DHT22;3902;49.474;8.616;2023-08-12T03:35:05;22.40;99.90
7720;DHT22;3902;49.474;8.616;2023-08-12T03:37:30;22.40;99.90
7720;DHT22;3902;49.474;8.616;2023-08-12T03:39:56;22.30;99.90
7720;DHT22;3902;49.474;8.616;2023-08-12T03:42:21;22.30;99.90
7720;DHT22;3902;49.474;8.616;2023-08-12T03:44:46;22.30;99.90
7720;DHT22;3902;49.474;8.616;2023-08-12T03:47:12;22.30;99.90
7720;DHT22;3902;49.474;8.616;2023-08-12T03:49:38;22.40;99.90
7720;DHT22;3902;49.474;8.616;2023-08-12T03:52:03;22.30;99.90
7720;DHT22;3902;49.474;8.616;2023-08-12T03:54:29;22.30;99.90
7720;DHT22;3902;49.474;8.616;2023-08-12T03:56:55;22.30;99.90
7720;DHT22;3902;49.474;8.616;2023-08-12T03:59:20;22.30;99.90
7720;DHT22;3902;49.474;8.616;2023-08-12T04:01:46;22.30;99.90
7720;DHT22;3902;49.474;8.616;2023-08-12T04:04:11;22.20;99.90
7720;DHT22;3902;49.474;8.616;2023-08-12T04:06:37;22.30;99.90
7720;DHT22;3902;49.474;8.616;2023-08-12T04:09:03;22.30;99.90
7720;DHT22;3902;49.474;8.616;2023-08-12T04:11:29;22.30;99.90
7720;DHT22;3902;49.474;8.616;2023-08-12T04:13:55;22.30;99.90
7720;DHT22;3902;49.474;8.616;2023-08-12T04:16:20;22.30;99.90
7720;DHT22;3902;49.474;8.616;2023-08-12T04:18:45;22.30;99.90
7720;DHT22;3902;49.474;8.616;2023-08-12T04:21:11;22.30;99.90
7720;DHT22;3902;49.474;8.616;2023-08-12T04:23:37;22.30;99.90
7720;DHT22;3902;49.474;8.616;2023-08-12T04:26:03;22.30;99.90
7720;DHT22;3902;49.474;8.616;2023-08-12T04:28:28;22.30;99.90
7720;DHT22;3902;49.474;8.616;2023-08-12T04:30:54;22.30;99.90
7720;DHT22;3902;49.474;8.616;2023-08-12T04:33:19;22.30;99.90
7720;DHT22;3902;49.474;8.616;2023-08-12T04:35:45;22.30;99.90
7720;DHT22;3902;49.474;8.616;2023-08-12T04:38:11;22.30;99.90
7720;DHT22;3902;49.474;8.616;2023-08-12T04:40:40;22.30;99.90
7720;DHT22;3902;49.474;8.616;2023-08-12T04:43:05;22.30;99.90
7720;DHT22;3902;49.474;8.616;2023-08-12T04:45:31;22.30;99.90
7720;DHT22;3902;49.474;8.616;2023-08-12T04:47:57;22.30;99.90
7720;DHT22;3902;49.474;8.616;2023-08-12T04:50:23;22.30;99.90
7720;DHT22;3902;49.474;8.616;2023-08-12T04:52:49;22.30;99.90
7720;DHT22;3902;49.474;8.616;2023-08-12T04:55:14;22.30;99.90
7720;DHT22;3902;49.474;8.616;2023-08-12T04:57:40;22.30;99.90
7720;DHT22;3902;49.474;8.616;2023-08-12T05:00:06;22.40;99.90
7720;DHT22;3902;49.474;8.616;2023-08-12T05:02:35;22.30;99.90
7720;DHT22;3902;49.474;8.616;2023-08-12T05:05:01;22.30;99.90
7720;DHT22;3902;49.474;8.616;2023-08-12T05:07:27;22.40;99.90
7720;DHT22;3902;49.474;8.616;2023-08-12T05:09:52;22.40;99.90
7720;DHT22;3902;49.474;8.616;2023-08-12T05:12:18;22.40;99.90
7720;DHT22;3902;49.474;8.616;2023-08-12T05:14:43;22.40;99.90
7720;DHT22;3902;49.474;8.616;2023-08-12T05:17:09;22.40;99.90
7720;DHT22;3902;49.474;8.616;2023-08-12T05:19:34;22.40;99.90
7720;DHT22;3902;49.474;8.616;2023-08-12T05:22:00;22.40;99.90
7720;DHT22;3902;49.474;8.616;2023-08-12T05:24:25;22.30;99.90
7720;DHT22;3902;49.474;8.616;2023-08-12T05:26:51;22.30;99.90
7720;DHT22;3902;49.474;8.616;2023-08-12T05:29:16;22.40;99.90
7720;DHT22;3902;49.474;8.616;2023-08-12T05:31:42;22.40;99.90
7720;DHT22;3902;49.474;8.616;2023-08-12T05:34:08;22.40;99.90
7720;DHT22;3902;49.474;8.616;2023-08-12T05:36:33;22.40;99.90
7720;DHT22;3902;49.474;8.616;2023-08-12T05:38:59;22.40;99.90
7720;DHT22;3902;49.474;8.616;2023-08-12T05:41:24;22.40;99.90
7720;DHT22;3902;49.474;8.616;2023-08-12T05:43:50;22.40;99.90
7720;DHT22;3902;49.474;8.616;2023-08-12T05:46:15;22.40;99.90
7720;DHT22;3902;49.474;8.616;2023-08-12T05:48:41;22.40;99.90
7720;DHT22;3902;49.474;8.616;2023-08-12T05:51:06;22.40;99.90
7720;DHT22;3902;49.474;8.616;2023-08-12T05:53:32;22.40;99.90
7720;DHT22;3902;49.474;8.616;2023-08-12T05:55:58;22.40;99.90
7720;DHT22;3902;49.474;8.616;2023-08-12T05:58:24;22.40;99.90
7720;DHT22;3902;49.474;8.616;2023-08-12T06:00:49;22.40;99.90
7720;DHT22;3902;49.474;8.616;2023-08-12T06:03:15;22.40;99.90
7720;DHT22;3902;49.474;8.616;2023-08-12T06:05:45;22.40;99.90
7720;DHT22;3902;49.474;8.616;2023-08-12T06:08:11;22.30;99.90
7720;DHT22;3902;49.474;8.616;2023-08-12T06:10:36;22.30;99.90
7720;DHT22;3902;49.474;8.616;2023-08-12T06:13:02;22.30;99.90
7720;DHT22;3902;49.474;8.616;2023-08-12T06:15:27;22.20;99.90
7720;DHT22;3902;49.474;8.616;2023-08-12T06:17:53;22.20;99.90
7720;DHT22;3902;49.474;8.616;2023-08-12T06:20:18;22.20;99.90
7720;DHT22;3902;49.474;8.616;2023-08-12T06:22:44;22.20;99.90
7720;DHT22;3902;49.474;8.616;2023-08-12T06:25:09;22.10;99.90
7720;DHT22;3902;49.474;8.616;2023-08-12T06:27:35;22.20;99.90
7720;DHT22;3902;49.474;8.616;2023-08-12T06:30:00;22.20;99.90
7720;DHT22;3902;49.474;8.616;2023-08-12T06:32:26;22.30;99.90
7720;DHT22;3902;49.474;8.616;2023-08-12T06:34:51;22.30;99.90
7720;DHT22;3902;49.474;8.616;2023-08-12T06:37:17;22.30;99.90
7720;DHT22;3902;49.474;8.616;2023-08-12T06:39:42;22.40;99.90
7720;DHT22;3902;49.474;8.616;2023-08-12T06:42:08;22.40;99.90
7720;DHT22;3902;49.474;8.616;2023-08-12T06:44:33;22.40;99.90
7720;DHT22;3902;49.474;8.616;2023-08-12T06:46:59;22.50;99.90
7720;DHT22;3902;49.474;8.616;2023-08-12T06:49:24;22.50;99.90
7720;DHT22;3902;49.474;8.616;2023-08-12T06:51:50;22.50;99.90
7720;DHT22;3902;49.474;8.616;2023-08-12T06:54:15;22.60;99.90
7720;DHT22;3902;49.474;8.616;2023-08-12T06:56:41;22.60;99.90
7720;DHT22;3902;49.474;8.616;2023-08-12T06:59:07;22.60;99.90
7720;DHT22;3902;49.474;8.616;2023-08-12T07:01:32;22.70;99.90
7720;DHT22;3902;49.474;8.616;2023-08-12T07:03:58;22.80;99.90
7720;DHT22;3902;49.474;8.616;2023-08-12T07:06:23;22.80;99.90
7720;DHT22;3902;49.474;8.616;2023-08-12T07:08:49;22.90;99.90
7720;DHT22;3902;49.474;8.616;2023-08-12T07:11:14;22.80;99.90
7720;DHT22;3902;49.474;8.616;2023-08-12T07:13:40;22.80;99.90
7720;DHT22;3902;49.474;8.616;2023-08-12T07:16:06;22.90;99.90
7720;DHT22;3902;49.474;8.616;2023-08-12T07:18:32;23.00;99.90
7720;DHT22;3902;49.474;8.616;2023-08-12T07:20:57;23.00;99.90
7720;DHT22;3902;49.474;8.616;2023-08-12T07:23:26;23.10;99.90
7720;DHT22;3902;49.474;8.616;2023-08-12T07:25:52;23.10;99.90
7720;DHT22;3902;49.474;8.616;2023-08-12T07:28:17;23.20;99.90
7720;DHT22;3902;49.474;8.616;2023-08-12T07:30:43;23.20;99.90
7720;DHT22;3902;49.474;8.616;2023-08-12T07:33:08;23.20;99.90
7720;DHT22;3902;49.474;8.616;2023-08-12T07:35:34;23.20;99.90
7720;DHT22;3902;49.474;8.616;2023-08-12T07:37:59;23.30;99.90
7720;DHT22;3902;49.474;8.616;2023-08-12T07:40:25;23.30;99.90
7720;DHT22;3902;49.474;8.616;2023-08-12T07:42:51;23.40;99.90
7720;DHT22;3902;49.474;8.616;2023-08-12T07:45:16;23.40;99.90
7720;DHT22;3902;49.474;8.616;2023-08-12T07:47:42;23.40;99.90
7720;DHT22;3902;49.474;8.616;2023-08-12T07:50:07;23.50;99.90
7720;DHT22;3902;49.474;8.616;2023-08-12T07:52:33;23.60;99.90
7720;DHT22;3902;49.474;8.616;2023-08-12T07:54:58;23.60;99.90
7720;DHT22;3902;49.474;8.616;2023-08-12T07:57:24;23.60;99.90
7720;DHT22;3902;49.474;8.616;2023-08-12T07:59:51;23.70;99.90
7720;DHT22;3902;49.474;8.616;2023-08-12T08:02:16;23.70;99.90
7720;DHT22;3902;49.474;8.616;2023-08-12T08:04:42;23.70;99.90
7720;DHT22;3902;49.474;8.616;2023-08-12T08:07:08;23.70;99.90
7720;DHT22;3902;49.474;8.616;2023-08-12T08:09:34;23.70;99.90
7720;DHT22;3902;49.474;8.616;2023-08-12T08:12:00;23.80;99.90
7720;DHT22;3902;49.474;8.616;2023-08-12T08:14:26;23.80;99.90
7720;DHT22;3902;49.474;8.616;2023-08-12T08:16:53;23.80;99.90
7720;DHT22;3902;49.474;8.616;2023-08-12T08:19:18;23.90;99.90
7720;DHT22;3902;49.474;8.616;2023-08-12T08:21:44;23.90;99.90
7720;DHT22;3902;49.474;8.616;2023-08-12T08:24:10;24.00;99.90
7720;DHT22;3902;49.474;8.616;2023-08-12T08:26:39;24.00;99.90
7720;DHT22;3902;49.474;8.616;2023-08-12T08:29:08;24.00;99.90
7720;DHT22;3902;49.474;8.616;2023-08-12T08:31:34;24.10;99.90
7720;DHT22;3902;49.474;8.616;2023-08-12T08:33:59;24.10;99.90
7720;DHT22;3902;49.474;8.616;2023-08-12T08:36:25;24.00;99.90
7720;DHT22;3902;49.474;8.616;2023-08-12T08:38:50;24.10;99.90
7720;DHT22;3902;49.474;8.616;2023-08-12T08:41:17;24.10;99.90
7720;DHT22;3902;49.474;8.616;2023-08-12T08:43:42;24.10;99.90
7720;DHT22;3902;49.474;8.616;2023-08-12T08:46:10;24.20;99.90
7720;DHT22;3902;49.474;8.616;2023-08-12T08:48:39;24.20;99.90
7720;DHT22;3902;49.474;8.616;2023-08-12T08:51:05;24.30;99.90
7720;DHT22;3902;49.474;8.616;2023-08-12T08:53:35;24.30;99.90
7720;DHT22;3902;49.474;8.616;2023-08-12T08:56:02;24.50;99.90
7720;DHT22;3902;49.474;8.616;2023-08-12T08:58:28;24.50;99.90
7720;DHT22;3902;49.474;8.616;2023-08-12T09:00:54;24.60;99.90
7720;DHT22;3902;49.474;8.616;2023-08-12T09:03:20;24.60;99.90
7720;DHT22;3902;49.474;8.616;2023-08-12T09:05:46;24.70;99.90
7720;DHT22;3902;49.474;8.616;2023-08-12T09:08:12;24.70;99.90
7720;DHT22;3902;49.474;8.616;2023-08-12T09:10:39;24.70;99.90
7720;DHT22;3902;49.474;8.616;2023-08-12T09:13:07;24.80;99.90
7720;DHT22;3902;49.474;8.616;2023-08-12T09:15:34;24.90;99.90
7720;DHT22;3902;49.474;8.616;2023-08-12T09:18:00;25.00;99.90
7720;DHT22;3902;49.474;8.616;2023-08-12T09:20:26;25.10;99.90
7720;DHT22;3902;49.474;8.616;2023-08-12T09:22:58;25.20;99.90
7720;DHT22;3902;49.474;8.616;2023-08-12T09:25:27;25.30;99.90
7720;DHT22;3902;49.474;8.616;2023-08-12T09:27:55;25.40;99.90
7720;DHT22;3902;49.474;8.616;2023-08-12T09:30:21;25.50;99.90
7720;DHT22;3902;49.474;8.616;2023-08-12T09:33:08;25.60;99.90
7720;DHT22;3902;49.474;8.616;2023-08-12T09:35:41;25.60;99.90
7720;DHT22;3902;49.474;8.616;2023-08-12T09:38:10;25.70;99.90
7720;DHT22;3902;49.474;8.616;2023-08-12T09:40:37;25.80;99.90
7720;DHT22;3902;49.474;8.616;2023-08-12T09:43:03;25.80;99.90
7720;DHT22;3902;49.474;8.616;2023-08-12T09:45:30;25.80;99.90
7720;DHT22;3902;49.474;8.616;2023-08-12T09:47:56;25.90;99.90
7720;DHT22;3902;49.474;8.616;2023-08-12T09:50:23;25.90;99.90
7720;DHT22;3902;49.474;8.616;2023-08-12T09:52:51;26.00;99.90
7720;DHT22;3902;49.474;8.616;2023-08-12T09:55:18;26.10;99.90
7720;DHT22;3902;49.474;8.616;2023-08-12T09:57:48;26.10;99.90
7720;DHT22;3902;49.474;8.616;2023-08-12T10:00:14;26.10;99.90
7720;DHT22;3902;49.474;8.616;2023-08-12T10:02:44;26.10;99.90
7720;DHT22;3902;49.474;8.616;2023-08-12T10:05:12;26.20;99.90
7720;DHT22;3902;49.474;8.616;2023-08-12T10:07:39;26.30;99.90
7720;DHT22;3902;49.474;8.616;2023-08-12T10:10:06;26.40;99.90
7720;DHT22;3902;49.474;8.616;2023-08-12T10:12:33;26.50;99.90
7720;DHT22;3902;49.474;8.616;2023-08-12T10:15:00;26.70;99.90
7720;DHT22;3902;49.474;8.616;2023-08-12T10:17:26;26.80;99.90
7720;DHT22;3902;49.474;8.616;2023-08-12T10:19:56;26.90;99.90
7720;DHT22;3902;49.474;8.616;2023-08-12T10:22:24;26.90;99.90
7720;DHT22;3902;49.474;8.616;2023-08-12T10:24:50;26.90;99.90
7720;DHT22;3902;49.474;8.616;2023-08-12T10:27:18;26.90;99.90
7720;DHT22;3902;49.474;8.616;2023-08-12T10:29:43;26.80;99.90
7720;DHT22;3902;49.474;8.616;2023-08-12T10:32:09;26.90;99.90
7720;DHT22;3902;49.474;8.616;2023-08-12T10:34:35;26.80;99.90
7720;DHT22;3902;49.474;8.616;2023-08-12T10:37:02;26.90;99.90
7720;DHT22;3902;49.474;8.616;2023-08-12T10:39:29;26.90;99.90
7720;DHT22;3902;49.474;8.616;2023-08-12T10:41:56;26.90;99.90
7720;DHT22;3902;49.474;8.616;2023-08-12T10:44:26;26.90;99.90
7720;DHT22;3902;49.474;8.616;2023-08-12T10:46:52;26.90;99.90
7720;DHT22;3902;49.474;8.616;2023-08-12T10:49:20;26.80;99.90
7720;DHT22;3902;49.474;8.616;2023-08-12T10:51:53;26.80;99.90
7720;DHT22;3902;49.474;8.616;2023-08-12T10:54:24;26.80;99.90
7720;DHT22;3902;49.474;8.616;2023-08-12T11:02:28;27.30;99.90
7720;DHT22;3902;49.474;8.616;2023-08-12T11:07:21;27.40;99.90
7720;DHT22;3902;49.474;8.616;2023-08-12T11:09:52;27.40;99.90
7720;DHT22;3902;49.474;8.616;2023-08-12T11:12:33;27.40;99.90
7720;DHT22;3902;49.474;8.616;2023-08-12T11:15:00;27.30;99.90
7720;DHT22;3902;49.474;8.616;2023-08-12T11:17:33;27.20;99.90
7720;DHT22;3902;49.474;8.616;2023-08-12T11:20:00;27.10;99.90
7720;DHT22;3902;49.474;8.616;2023-08-12T11:22:26;27.00;99.90
7720;DHT22;3902;49.474;8.616;2023-08-12T11:24:53;26.90;99.90
7720;DHT22;3902;49.474;8.616;2023-08-12T11:27:18;26.80;99.90
7720;DHT22;3902;49.474;8.616;2023-08-12T11:29:44;26.70;99.90
7720;DHT22;3902;49.474;8.616;2023-08-12T11:32:10;26.50;99.90
7720;DHT22;3902;49.474;8.616;2023-08-12T11:34:35;26.30;99.90
7720;DHT22;3902;49.474;8.616;2023-08-12T11:37:03;25.90;99.90
7720;DHT22;3902;49.474;8.616;2023-08-12T11:39:28;25.70;99.90
7720;DHT22;3902;49.474;8.616;2023-08-12T11:41:55;25.70;99.90
7720;DHT22;3902;49.474;8.616;2023-08-12T11:44:24;25.60;99.90
7720;DHT22;3902;49.474;8.616;2023-08-12T11:46:49;25.50;99.90
7720;DHT22;3902;49.474;8.616;2023-08-12T11:49:15;25.30;99.90
7720;DHT22;3902;49.474;8.616;2023-08-12T11:51:42;25.20;99.90
7720;DHT22;3902;49.474;8.616;2023-08-12T11:54:08;25.20;99.90
7720;DHT22;3902;49.474;8.616;2023-08-12T11:56:34;25.00;99.90
7720;DHT22;3902;49.474;8.616;2023-08-12T11:58:59;24.90;99.90
7720;DHT22;3902;49.474;8.616;2023-08-12T12:01:25;24.80;99.90
7720;DHT22;3902;49.474;8.616;2023-08-12T12:03:53;24.70;99.90
7720;DHT22;3902;49.474;8.616;2023-08-12T12:06:36;24.70;99.90
7720;DHT22;3902;49.474;8.616;2023-08-12T12:09:07;24.60;99.90
7720;DHT22;3902;49.474;8.616;2023-08-12T12:11:35;24.60;99.90
7720;DHT22;3902;49.474;8.616;2023-08-12T12:14:06;24.50;99.90
7720;DHT22;3902;49.474;8.616;2023-08-12T12:16:43;24.50;99.90
7720;DHT22;3902;49.474;8.616;2023-08-12T12:21:39;24.50;99.90
7720;DHT22;3902;49.474;8.616;2023-08-12T12:24:06;24.60;99.90
7720;DHT22;3902;49.474;8.616;2023-08-12T12:26:32;24.60;99.90
7720;DHT22;3902;49.474;8.616;2023-08-12T12:28:58;24.60;99.90
7720;DHT22;3902;49.474;8.616;2023-08-12T12:31:23;24.70;99.90
7720;DHT22;3902;49.474;8.616;2023-08-12T12:33:49;24.80;99.90
7720;DHT22;3902;49.474;8.616;2023-08-12T12:36:14;24.80;99.90
7720;DHT22;3902;49.474;8.616;2023-08-12T12:38:40;24.90;99.90
7720;DHT22;3902;49.474;8.616;2023-08-12T12:41:05;25.10;99.90
7720;DHT22;3902;49.474;8.616;2023-08-12T12:43:31;25.20;99.90
7720;DHT22;3902;49.474;8.616;2023-08-12T12:45:56;25.30;99.90
7720;DHT22;3902;49.474;8.616;2023-08-12T12:48:21;25.60;99.90
7720;DHT22;3902;49.474;8.616;2023-08-12T12:50:47;25.90;99.90
7720;DHT22;3902;49.474;8.616;2023-08-12T12:53:12;26.20;99.90
7720;DHT22;3902;49.474;8.616;2023-08-12T12:55:38;26.50;99.90
7720;DHT22;3902;49.474;8.616;2023-08-12T12:58:04;26.90;99.90
7720;DHT22;3902;49.474;8.616;2023-08-12T13:00:29;27.10;99.90
7720;DHT22;3902;49.474;8.616;2023-08-12T13:02:54;27.20;99.90
7720;DHT22;3902;49.474;8.616;2023-08-12T13:05:20;27.20;99.90
7720;DHT22;3902;49.474;8.616;2023-08-12T13:07:45;27.10;99.90
7720;DHT22;3902;49.474;8.616;2023-08-12T13:10:11;27.00;99.90
7720;DHT22;3902;49.474;8.616;2023-08-12T13:12:36;26.90;99.90
7720;DHT22;3902;49.474;8.616;2023-08-12T13:15:02;26.80;99.90
7720;DHT22;3902;49.474;8.616;2023-08-12T13:17:28;26.60;99.90
7720;DHT22;3902;49.474;8.616;2023-08-12T13:19:53;26.50;99.90
7720;DHT22;3902;49.474;8.616;2023-08-12T13:22:19;26.40;99.90
7720;DHT22;3902;49.474;8.616;2023-08-12T13:24:44;26.10;99.90
7720;DHT22;3902;49.474;8.616;2023-08-12T13:27:10;26.00;99.90
7720;DHT22;3902;49.474;8.616;2023-08-12T13:29:35;25.90;99.90
7720;DHT22;3902;49.474;8.616;2023-08-12T13:32:01;25.90;99.90
7720;DHT22;3902;49.474;8.616;2023-08-12T13:34:26;25.80;99.90
7720;DHT22;3902;49.474;8.616;2023-08-12T13:36:52;25.80;99.90
7720;DHT22;3902;49.474;8.616;2023-08-12T13:39:17;25.90;99.90
7720;DHT22;3902;49.474;8.616;2023-08-12T13:41:43;25.90;99.90
7720;DHT22;3902;49.474;8.616;2023-08-12T13:44:09;25.90;99.90
7720;DHT22;3902;49.474;8.616;2023-08-12T13:46:34;26.00;99.90
7720;DHT22;3902;49.474;8.616;2023-08-12T13:48:59;25.90;99.90
7720;DHT22;3902;49.474;8.616;2023-08-12T13:51:25;25.80;99.90
7720;DHT22;3902;49.474;8.616;2023-08-12T13:53:51;25.80;99.90
7720;DHT22;3902;49.474;8.616;2023-08-12T13:56:16;25.80;99.90
7720;DHT22;3902;49.474;8.616;2023-08-12T13:58:42;25.70;99.90
7720;DHT22;3902;49.474;8.616;2023-08-12T14:01:08;25.70;99.90
7720;DHT22;3902;49.474;8.616;2023-08-12T14:03:34;25.70;99.90
7720;DHT22;3902;49.474;8.616;2023-08-12T14:05:59;25.60;99.90
7720;DHT22;3902;49.474;8.616;2023-08-12T14:08:25;25.60;99.90
7720;DHT22;3902;49.474;8.616;2023-08-12T14:10:50;25.70;99.90
7720;DHT22;3902;49.474;8.616;2023-08-12T14:13:16;25.80;99.90
7720;DHT22;3902;49.474;8.616;2023-08-12T14:15:41;25.80;99.90
7720;DHT22;3902;49.474;8.616;2023-08-12T14:18:07;25.90;99.90
7720;DHT22;3902;49.474;8.616;2023-08-12T14:20:33;25.90;99.90
7720;DHT22;3902;49.474;8.616;2023-08-12T14:22:58;25.90;99.90
7720;DHT22;3902;49.474;8.616;2023-08-12T14:25:24;25.90;99.90
7720;DHT22;3902;49.474;8.616;2023-08-12T14:27:50;25.80;99.90
7720;DHT22;3902;49.474;8.616;2023-08-12T14:30:18;25.80;99.90
7720;DHT22;3902;49.474;8.616;2023-08-12T14:32:44;25.80;99.90
7720;DHT22;3902;49.474;8.616;2023-08-12T14:35:09;25.70;99.90
7720;DHT22;3902;49.474;8.616;2023-08-12T14:37:35;25.70;99.90
7720;DHT22;3902;49.474;8.616;2023-08-12T14:40:01;25.70;99.90
7720;DHT22;3902;49.474;8.616;2023-08-12T14:42:26;25.70;99.90
7720;DHT22;3902;49.474;8.616;2023-08-12T14:44:52;25.70;99.90
7720;DHT22;3902;49.474;8.616;2023-08-12T14:47:17;25.70;99.90
7720;DHT22;3902;49.474;8.616;2023-08-12T14:49:44;25.70;99.90
7720;DHT22;3902;49.474;8.616;2023-08-12T14:52:18;25.60;99.90
7720;DHT22;3902;49.474;8.616;2023-08-12T14:54:44;25.60;99.90
7720;DHT22;3902;49.474;8.616;2023-08-12T14:57:10;25.60;99.90
7720;DHT22;3902;49.474;8.616;2023-08-12T14:59:35;25.60;99.90
7720;DHT22;3902;49.474;8.616;2023-08-12T15:02:01;25.50;99.90
7720;DHT22;3902;49.474;8.616;2023-08-12T15:04:26;25.50;99.90
7720;DHT22;3902;49.474;8.616;2023-08-12T15:06:52;25.50;99.90
7720;DHT22;3902;49.474;8.616;2023-08-12T15:09:17;25.50;99.90
7720;DHT22;3902;49.474;8.616;2023-08-12T15:11:43;25.50;99.90
7720;DHT22;3902;49.474;8.616;2023-08-12T15:14:09;25.50;99.90
7720;DHT22;3902;49.474;8.616;2023-08-12T15:16:34;25.50;99.90
7720;DHT22;3902;49.474;8.616;2023-08-12T15:19:01;25.50;99.90
7720;DHT22;3902;49.474;8.616;2023-08-12T15:21:27;25.50;99.90
7720;DHT22;3902;49.474;8.616;2023-08-12T15:23:52;25.50;99.90
7720;DHT22;3902;49.474;8.616;2023-08-12T15:26:18;25.50;99.90
7720;DHT22;3902;49.474;8.616;2023-08-12T15:28:44;25.50;99.90
7720;DHT22;3902;49.474;8.616;2023-08-12T15:31:11;25.50;99.90
7720;DHT22;3902;49.474;8.616;2023-08-12T15:33:38;25.60;99.90
7720;DHT22;3902;49.474;8.616;2023-08-12T15:36:03;25.80;99.90
7720;DHT22;3902;49.474;8.616;2023-08-12T15:38:29;25.90;99.90
7720;DHT22;3902;49.474;8.616;2023-08-12T15:40:54;26.00;99.90
7720;DHT22;3902;49.474;8.616;2023-08-12T15:43:19;26.10;99.90
7720;DHT22;3902;49.474;8.616;2023-08-12T15:45:45;26.10;99.90
7720;DHT22;3902;49.474;8.616;2023-08-12T15:48:11;26.20;99.90
7720;DHT22;3902;49.474;8.616;2023-08-12T15:50:37;26.20;99.90
7720;DHT22;3902;49.474;8.616;2023-08-12T15:53:03;26.10;99.90
7720;DHT22;3902;49.474;8.616;2023-08-12T15:55:29;26.10;99.90
7720;DHT22;3902;49.474;8.616;2023-08-12T15:57:55;26.10;99.90
7720;DHT22;3902;49.474;8.616;2023-08-12T16:00:20;26.10;99.90
7720;DHT22;3902;49.474;8.616;2023-08-12T16:02:46;26.00;99.90
7720;DHT22;3902;49.474;8.616;2023-08-12T16:05:11;25.80;99.90
7720;DHT22;3902;49.474;8.616;2023-08-12T16:07:37;25.80;99.90
7720;DHT22;3902;49.474;8.616;2023-08-12T16:10:03;25.90;99.90